sensor_id;sensor_type;location;lat;lon;timestamp;P1;durP1;ratioP1;P2;durP2;ratioP2
14876;SDS011;22152;48.158;17.118;2023-01-31T00:00:12;3.00;;;1.45;;
14876;SDS011;22152;48.158;17.118;2023-01-31T00:02:58;4.45;;;1.80;;
14876;SDS011;22152;48.158;17.118;2023-01-31T00:05:37;5.50;;;1.50;;
14876;SDS011;22152;48.158;17.118;2023-01-31T00:08:23;5.32;;;1.83;;
14876;SDS011;22152;48.158;17.118;2023-01-31T00:11:02;3.67;;;1.23;;
14876;SDS011;22152;48.158;17.118;2023-01-31T00:13:48;5.90;;;1.30;;
14876;SDS011;22152;48.158;17.118;2023-01-31T00:16:28;5.22;;;1.90;;
14876;SDS011;22152;48.158;17.118;2023-01-31T00:19:14;3.58;;;1.30;;
14876;SDS011;22152;48.158;17.118;2023-01-31T00:22:07;4.85;;;1.63;;
14876;SDS011;22152;48.158;17.118;2023-01-31T00:24:39;2.83;;;1.60;;
14876;SDS011;22152;48.158;17.118;2023-01-31T00:27:32;4.82;;;1.33;;
14876;SDS011;22152;48.158;17.118;2023-01-31T00:30:04;4.35;;;1.15;;
14876;SDS011;22152;48.158;17.118;2023-01-31T00:32:58;2.95;;;1.10;;
14876;SDS011;22152;48.158;17.118;2023-01-31T00:35:30;6.20;;;1.63;;
14876;SDS011;22152;48.158;17.118;2023-01-31T00:38:24;3.72;;;1.20;;
14876;SDS011;22152;48.158;17.118;2023-01-31T00:40:56;3.55;;;1.30;;
14876;SDS011;22152;48.158;17.118;2023-01-31T00:43:49;7.80;;;1.83;;
14876;SDS011;22152;48.158;17.118;2023-01-31T00:46:29;5.72;;;1.52;;
14876;SDS011;22152;48.158;17.118;2023-01-31T00:49:16;8.52;;;1.75;;
14876;SDS011;22152;48.158;17.118;2023-01-31T00:51:55;4.43;;;1.35;;
14876;SDS011;22152;48.158;17.118;2023-01-31T00:54:41;5.85;;;1.92;;
14876;SDS011;22152;48.158;17.118;2023-01-31T00:57:20;4.68;;;1.13;;
14876;SDS011;22152;48.158;17.118;2023-01-31T01:00:06;4.00;;;1.50;;
14876;SDS011;22152;48.158;17.118;2023-01-31T01:02:46;4.47;;;1.05;;
14876;SDS011;22152;48.158;17.118;2023-01-31T01:05:32;7.50;;;1.63;;
14876;SDS011;22152;48.158;17.118;2023-01-31T01:08:11;3.33;;;1.50;;
14876;SDS011;22152;48.158;17.118;2023-01-31T01:14:09;7.93;;;1.73;;
14876;SDS011;22152;48.158;17.118;2023-01-31T01:16:55;8.52;;;2.15;;
14876;SDS011;22152;48.158;17.118;2023-01-31T01:19:44;6.60;;;1.65;;
14876;SDS011;22152;48.158;17.118;2023-01-31T01:22:37;14.20;;;2.92;;
14876;SDS011;22152;48.158;17.118;2023-01-31T01:25:09;9.15;;;1.33;;
14876;SDS011;22152;48.158;17.118;2023-01-31T01:28:02;5.45;;;1.77;;
14876;SDS011;22152;48.158;17.118;2023-01-31T01:30:36;4.40;;;1.85;;
14876;SDS011;22152;48.158;17.118;2023-01-31T01:33:30;3.60;;;1.25;;
14876;SDS011;22152;48.158;17.118;2023-01-31T01:36:03;3.72;;;1.20;;
14876;SDS011;22152;48.158;17.118;2023-01-31T01:38:58;3.20;;;1.60;;
14876;SDS011;22152;48.158;17.118;2023-01-31T01:41:30;3.33;;;1.42;;
14876;SDS011;22152;48.158;17.118;2023-01-31T01:44:44;4.75;;;1.35;;
14876;SDS011;22152;48.158;17.118;2023-01-31T01:47:36;2.15;;;1.25;;
14876;SDS011;22152;48.158;17.118;2023-01-31T01:50:38;4.35;;;1.33;;
14876;SDS011;22152;48.158;17.118;2023-01-31T01:53:24;4.43;;;1.30;;
14876;SDS011;22152;48.158;17.118;2023-01-31T01:56:15;4.32;;;1.33;;
14876;SDS011;22152;48.158;17.118;2023-01-31T01:59:08;3.47;;;1.08;;
14876;SDS011;22152;48.158;17.118;2023-01-31T02:02:12;4.35;;;1.40;;
14876;SDS011;22152;48.158;17.118;2023-01-31T02:04:47;4.68;;;1.27;;
14876;SDS011;22152;48.158;17.118;2023-01-31T02:07:43;3.55;;;1.45;;
14876;SDS011;22152;48.158;17.118;2023-01-31T02:10:22;5.30;;;1.50;;
14876;SDS011;22152;48.158;17.118;2023-01-31T02:13:22;2.35;;;1.10;;
14876;SDS011;22152;48.158;17.118;2023-01-31T02:15:55;6.70;;;1.55;;
14876;SDS011;22152;48.158;17.118;2023-01-31T02:18:49;4.75;;;1.20;;
14876;SDS011;22152;48.158;17.118;2023-01-31T02:40:39;4.80;;;1.60;;
14876;SDS011;22152;48.158;17.118;2023-01-31T02:56:06;5.57;;;2.08;;
14876;SDS011;22152;48.158;17.118;2023-01-31T02:59:08;7.50;;;1.27;;
14876;SDS011;22152;48.158;17.118;2023-01-31T03:01:55;5.80;;;1.70;;
14876;SDS011;22152;48.158;17.118;2023-01-31T03:04:45;5.50;;;1.40;;
14876;SDS011;22152;48.158;17.118;2023-01-31T03:07:29;8.40;;;1.75;;
14876;SDS011;22152;48.158;17.118;2023-01-31T03:13:19;2.85;;;1.40;;
14876;SDS011;22152;48.158;17.118;2023-01-31T03:16:26;6.15;;;1.40;;
14876;SDS011;22152;48.158;17.118;2023-01-31T03:19:58;3.95;;;1.45;;
14876;SDS011;22152;48.158;17.118;2023-01-31T03:23:01;8.18;;;2.10;;
14876;SDS011;22152;48.158;17.118;2023-01-31T03:25:40;6.18;;;1.35;;
14876;SDS011;22152;48.158;17.118;2023-01-31T03:28:35;6.93;;;1.35;;
14876;SDS011;22152;48.158;17.118;2023-01-31T03:34:10;5.85;;;1.42;;
14876;SDS011;22152;48.158;17.118;2023-01-31T03:40:16;8.45;;;1.80;;
14876;SDS011;22152;48.158;17.118;2023-01-31T03:43:21;6.63;;;1.55;;
14876;SDS011;22152;48.158;17.118;2023-01-31T03:46:47;10.18;;;1.60;;
14876;SDS011;22152;48.158;17.118;2023-01-31T03:49:25;6.45;;;2.53;;
14876;SDS011;22152;48.158;17.118;2023-01-31T03:52:30;7.25;;;1.77;;
14876;SDS011;22152;48.158;17.118;2023-01-31T03:55:12;4.10;;;1.30;;
14876;SDS011;22152;48.158;17.118;2023-01-31T03:58:12;7.63;;;1.90;;
14876;SDS011;22152;48.158;17.118;2023-01-31T04:00:48;4.82;;;1.60;;
14876;SDS011;22152;48.158;17.118;2023-01-31T04:04:04;6.28;;;1.15;;
14876;SDS011;22152;48.158;17.118;2023-01-31T04:06:46;4.10;;;0.85;;
14876;SDS011;22152;48.158;17.118;2023-01-31T04:09:40;2.45;;;0.88;;
14876;SDS011;22152;48.158;17.118;2023-01-31T04:12:13;5.28;;;0.80;;
14876;SDS011;22152;48.158;17.118;2023-01-31T04:15:07;2.28;;;0.70;;
14876;SDS011;22152;48.158;17.118;2023-01-31T04:17:40;4.10;;;1.50;;
14876;SDS011;22152;48.158;17.118;2023-01-31T04:20:33;9.38;;;1.15;;
14876;SDS011;22152;48.158;17.118;2023-01-31T04:23:26;7.72;;;1.63;;
14876;SDS011;22152;48.158;17.118;2023-01-31T04:25:58;7.32;;;1.85;;
14876;SDS011;22152;48.158;17.118;2023-01-31T04:28:51;13.43;;;2.17;;
14876;SDS011;22152;48.158;17.118;2023-01-31T04:31:23;7.85;;;1.95;;
14876;SDS011;22152;48.158;17.118;2023-01-31T04:34:16;12.57;;;2.13;;
14876;SDS011;22152;48.158;17.118;2023-01-31T04:36:48;9.80;;;2.25;;
14876;SDS011;22152;48.158;17.118;2023-01-31T04:39:41;9.00;;;2.05;;
14876;SDS011;22152;48.158;17.118;2023-01-31T04:42:13;8.48;;;2.05;;
14876;SDS011;22152;48.158;17.118;2023-01-31T04:45:06;8.30;;;1.83;;
14876;SDS011;22152;48.158;17.118;2023-01-31T04:47:39;6.65;;;1.92;;
14876;SDS011;22152;48.158;17.118;2023-01-31T04:50:32;10.02;;;2.67;;
14876;SDS011;22152;48.158;17.118;2023-01-31T04:53:11;11.18;;;4.05;;
14876;SDS011;22152;48.158;17.118;2023-01-31T04:55:57;16.25;;;3.97;;
14876;SDS011;22152;48.158;17.118;2023-01-31T04:58:36;9.68;;;2.50;;
14876;SDS011;22152;48.158;17.118;2023-01-31T05:01:22;5.70;;;2.20;;
14876;SDS011;22152;48.158;17.118;2023-01-31T05:04:02;11.13;;;2.15;;
14876;SDS011;22152;48.158;17.118;2023-01-31T05:06:48;11.95;;;3.03;;
14876;SDS011;22152;48.158;17.118;2023-01-31T05:09:27;9.25;;;1.85;;
14876;SDS011;22152;48.158;17.118;2023-01-31T05:12:13;7.43;;;1.95;;
14876;SDS011;22152;48.158;17.118;2023-01-31T05:14:52;7.18;;;1.55;;
14876;SDS011;22152;48.158;17.118;2023-01-31T05:17:38;5.30;;;1.50;;
14876;SDS011;22152;48.158;17.118;2023-01-31T05:20:24;6.03;;;1.50;;
14876;SDS011;22152;48.158;17.118;2023-01-31T05:23:17;2.97;;;0.85;;
14876;SDS011;22152;48.158;17.118;2023-01-31T05:25:50;10.27;;;1.55;;
14876;SDS011;22152;48.158;17.118;2023-01-31T05:28:43;4.55;;;0.90;;
14876;SDS011;22152;48.158;17.118;2023-01-31T05:31:15;7.97;;;1.58;;
14876;SDS011;22152;48.158;17.118;2023-01-31T05:34:08;6.75;;;1.50;;
14876;SDS011;22152;48.158;17.118;2023-01-31T05:36:41;7.43;;;1.20;;
14876;SDS011;22152;48.158;17.118;2023-01-31T05:39:35;9.10;;;1.55;;
14876;SDS011;22152;48.158;17.118;2023-01-31T05:42:08;10.30;;;1.73;;
14876;SDS011;22152;48.158;17.118;2023-01-31T05:45:01;15.85;;;2.00;;
14876;SDS011;22152;48.158;17.118;2023-01-31T05:47:35;11.23;;;2.85;;
14876;SDS011;22152;48.158;17.118;2023-01-31T05:50:27;9.52;;;2.00;;
14876;SDS011;22152;48.158;17.118;2023-01-31T05:53:07;5.97;;;1.75;;
14876;SDS011;22152;48.158;17.118;2023-01-31T05:56:00;7.85;;;1.40;;
14876;SDS011;22152;48.158;17.118;2023-01-31T05:58:33;10.43;;;1.38;;
14876;SDS011;22152;48.158;17.118;2023-01-31T06:01:26;3.33;;;1.30;;
14876;SDS011;22152;48.158;17.118;2023-01-31T06:03:59;6.53;;;1.73;;
14876;SDS011;22152;48.158;17.118;2023-01-31T06:06:51;6.22;;;1.20;;
14876;SDS011;22152;48.158;17.118;2023-01-31T06:09:24;7.00;;;0.95;;
14876;SDS011;22152;48.158;17.118;2023-01-31T06:12:16;8.88;;;1.23;;
14876;SDS011;22152;48.158;17.118;2023-01-31T06:14:49;5.85;;;1.20;;
14876;SDS011;22152;48.158;17.118;2023-01-31T06:17:41;8.63;;;1.20;;
14876;SDS011;22152;48.158;17.118;2023-01-31T06:20:14;4.72;;;0.80;;
14876;SDS011;22152;48.158;17.118;2023-01-31T06:23:06;5.30;;;1.10;;
14876;SDS011;22152;48.158;17.118;2023-01-31T06:25:39;5.18;;;0.93;;
14876;SDS011;22152;48.158;17.118;2023-01-31T06:28:31;6.45;;;1.10;;
14876;SDS011;22152;48.158;17.118;2023-01-31T06:31:07;3.00;;;0.70;;
14876;SDS011;22152;48.158;17.118;2023-01-31T06:34:01;2.63;;;1.10;;
14876;SDS011;22152;48.158;17.118;2023-01-31T06:36:34;12.13;;;1.30;;
14876;SDS011;22152;48.158;17.118;2023-01-31T06:39:26;3.55;;;0.85;;
14876;SDS011;22152;48.158;17.118;2023-01-31T06:41:59;5.53;;;1.63;;
14876;SDS011;22152;48.158;17.118;2023-01-31T06:44:51;7.60;;;1.52;;
14876;SDS011;22152;48.158;17.118;2023-01-31T06:47:24;6.47;;;1.40;;
14876;SDS011;22152;48.158;17.118;2023-01-31T06:50:17;4.85;;;0.90;;
14876;SDS011;22152;48.158;17.118;2023-01-31T06:52:49;12.02;;;1.23;;
14876;SDS011;22152;48.158;17.118;2023-01-31T06:55:41;2.00;;;0.73;;
14876;SDS011;22152;48.158;17.118;2023-01-31T06:58:21;7.68;;;0.88;;
14876;SDS011;22152;48.158;17.118;2023-01-31T07:01:07;2.20;;;1.02;;
14876;SDS011;22152;48.158;17.118;2023-01-31T07:03:50;1.73;;;0.68;;
14876;SDS011;22152;48.158;17.118;2023-01-31T07:06:40;4.47;;;0.98;;
14876;SDS011;22152;48.158;17.118;2023-01-31T07:09:20;5.43;;;0.98;;
14876;SDS011;22152;48.158;17.118;2023-01-31T07:12:05;2.30;;;1.05;;
14876;SDS011;22152;48.158;17.118;2023-01-31T07:14:45;6.07;;;1.40;;
14876;SDS011;22152;48.158;17.118;2023-01-31T07:17:30;5.43;;;1.70;;
14876;SDS011;22152;48.158;17.118;2023-01-31T07:20:17;8.18;;;2.85;;
14876;SDS011;22152;48.158;17.118;2023-01-31T07:23:10;9.80;;;2.25;;
14876;SDS011;22152;48.158;17.118;2023-01-31T07:25:43;3.55;;;1.73;;
14876;SDS011;22152;48.158;17.118;2023-01-31T07:28:35;10.75;;;2.22;;
14876;SDS011;22152;48.158;17.118;2023-01-31T07:31:10;5.70;;;1.75;;
14876;SDS011;22152;48.158;17.118;2023-01-31T07:34:05;6.85;;;1.95;;
14876;SDS011;22152;48.158;17.118;2023-01-31T07:36:38;8.15;;;1.95;;
14876;SDS011;22152;48.158;17.118;2023-01-31T07:39:30;13.75;;;2.38;;
14876;SDS011;22152;48.158;17.118;2023-01-31T07:42:03;9.10;;;1.88;;
14876;SDS011;22152;48.158;17.118;2023-01-31T07:44:55;7.50;;;1.38;;
14876;SDS011;22152;48.158;17.118;2023-01-31T07:47:28;8.75;;;1.67;;
14876;SDS011;22152;48.158;17.118;2023-01-31T07:50:20;7.03;;;1.85;;
14876;SDS011;22152;48.158;17.118;2023-01-31T07:52:53;10.40;;;1.85;;
14876;SDS011;22152;48.158;17.118;2023-01-31T07:55:48;4.93;;;1.40;;
14876;SDS011;22152;48.158;17.118;2023-01-31T07:58:28;8.57;;;2.40;;
14876;SDS011;22152;48.158;17.118;2023-01-31T08:01:18;8.35;;;1.60;;
14876;SDS011;22152;48.158;17.118;2023-01-31T08:04:18;5.25;;;2.15;;
14876;SDS011;22152;48.158;17.118;2023-01-31T08:07:04;8.90;;;2.03;;
14876;SDS011;22152;48.158;17.118;2023-01-31T08:09:44;7.15;;;2.00;;
14876;SDS011;22152;48.158;17.118;2023-01-31T08:12:30;6.68;;;2.15;;
14876;SDS011;22152;48.158;17.118;2023-01-31T08:15:10;5.70;;;1.83;;
14876;SDS011;22152;48.158;17.118;2023-01-31T08:17:56;9.00;;;1.73;;
14876;SDS011;22152;48.158;17.118;2023-01-31T08:20:42;4.35;;;1.50;;
14876;SDS011;22152;48.158;17.118;2023-01-31T08:23:35;4.15;;;1.35;;
14876;SDS011;22152;48.158;17.118;2023-01-31T08:26:17;6.72;;;1.40;;
14876;SDS011;22152;48.158;17.118;2023-01-31T08:29:12;4.57;;;1.33;;
14876;SDS011;22152;48.158;17.118;2023-01-31T08:31:45;2.58;;;1.10;;
14876;SDS011;22152;48.158;17.118;2023-01-31T08:34:37;5.60;;;1.52;;
14876;SDS011;22152;48.158;17.118;2023-01-31T08:37:10;3.78;;;1.75;;
14876;SDS011;22152;48.158;17.118;2023-01-31T08:40:02;5.05;;;1.45;;
14876;SDS011;22152;48.158;17.118;2023-01-31T08:42:36;6.25;;;1.58;;
14876;SDS011;22152;48.158;17.118;2023-01-31T08:45:29;4.43;;;1.45;;
14876;SDS011;22152;48.158;17.118;2023-01-31T08:48:02;4.55;;;1.20;;
14876;SDS011;22152;48.158;17.118;2023-01-31T08:50:55;2.67;;;1.20;;
14876;SDS011;22152;48.158;17.118;2023-01-31T08:53:32;5.47;;;1.88;;
14876;SDS011;22152;48.158;17.118;2023-01-31T08:56:25;5.75;;;2.42;;
14876;SDS011;22152;48.158;17.118;2023-01-31T08:59:05;8.00;;;1.63;;
14876;SDS011;22152;48.158;17.118;2023-01-31T09:01:51;12.75;;;2.42;;
14876;SDS011;22152;48.158;17.118;2023-01-31T09:04:30;7.07;;;2.17;;
14876;SDS011;22152;48.158;17.118;2023-01-31T09:07:17;7.78;;;1.98;;
14876;SDS011;22152;48.158;17.118;2023-01-31T09:09:59;11.43;;;2.00;;
14876;SDS011;22152;48.158;17.118;2023-01-31T09:12:44;7.47;;;1.55;;
14876;SDS011;22152;48.158;17.118;2023-01-31T09:15:23;5.30;;;1.77;;
14876;SDS011;22152;48.158;17.118;2023-01-31T09:18:09;6.95;;;1.88;;
14876;SDS011;22152;48.158;17.118;2023-01-31T09:20:55;5.40;;;1.83;;
14876;SDS011;22152;48.158;17.118;2023-01-31T09:23:56;8.75;;;2.20;;
14876;SDS011;22152;48.158;17.118;2023-01-31T09:26:30;9.18;;;2.13;;
14876;SDS011;22152;48.158;17.118;2023-01-31T09:29:23;7.88;;;2.10;;
14876;SDS011;22152;48.158;17.118;2023-01-31T09:32:00;11.55;;;2.50;;
14876;SDS011;22152;48.158;17.118;2023-01-31T09:34:54;6.07;;;2.30;;
14876;SDS011;22152;48.158;17.118;2023-01-31T09:37:29;9.85;;;2.90;;
14876;SDS011;22152;48.158;17.118;2023-01-31T09:40:23;14.30;;;2.25;;
14876;SDS011;22152;48.158;17.118;2023-01-31T09:43:00;10.13;;;2.10;;
14876;SDS011;22152;48.158;17.118;2023-01-31T09:45:55;12.73;;;3.00;;
14876;SDS011;22152;48.158;17.118;2023-01-31T09:48:31;10.60;;;2.65;;
14876;SDS011;22152;48.158;17.118;2023-01-31T09:51:28;7.40;;;2.33;;
14876;SDS011;22152;48.158;17.118;2023-01-31T09:54:01;11.77;;;2.70;;
14876;SDS011;22152;48.158;17.118;2023-01-31T09:59:53;9.23;;;2.20;;
14876;SDS011;22152;48.158;17.118;2023-01-31T10:03:27;10.75;;;2.72;;
14876;SDS011;22152;48.158;17.118;2023-01-31T10:06:51;23.90;;;2.28;;
14876;SDS011;22152;48.158;17.118;2023-01-31T10:09:56;15.98;;;3.05;;
14876;SDS011;22152;48.158;17.118;2023-01-31T10:12:50;9.50;;;2.03;;
14876;SDS011;22152;48.158;17.118;2023-01-31T10:15:45;10.20;;;2.10;;
14876;SDS011;22152;48.158;17.118;2023-01-31T10:18:35;7.70;;;1.70;;
14876;SDS011;22152;48.158;17.118;2023-01-31T10:21:29;6.90;;;1.52;;
14876;SDS011;22152;48.158;17.118;2023-01-31T10:27:10;9.07;;;1.60;;
14876;SDS011;22152;48.158;17.118;2023-01-31T10:33:23;13.77;;;2.78;;
14876;SDS011;22152;48.158;17.118;2023-01-31T10:36:26;3.70;;;1.15;;
14876;SDS011;22152;48.158;17.118;2023-01-31T10:39:36;9.15;;;1.73;;
14876;SDS011;22152;48.158;17.118;2023-01-31T10:42:36;12.20;;;2.10;;
14876;SDS011;22152;48.158;17.118;2023-01-31T10:45:14;8.68;;;1.65;;
14876;SDS011;22152;48.158;17.118;2023-01-31T10:48:14;8.88;;;2.25;;
14876;SDS011;22152;48.158;17.118;2023-01-31T10:51:07;12.93;;;2.20;;
14876;SDS011;22152;48.158;17.118;2023-01-31T10:57:08;10.43;;;2.22;;
14876;SDS011;22152;48.158;17.118;2023-01-31T11:00:02;10.60;;;1.95;;
14876;SDS011;22152;48.158;17.118;2023-01-31T11:02:35;8.20;;;1.90;;
14876;SDS011;22152;48.158;17.118;2023-01-31T11:05:30;11.15;;;1.98;;
14876;SDS011;22152;48.158;17.118;2023-01-31T11:08:20;13.75;;;2.40;;
14876;SDS011;22152;48.158;17.118;2023-01-31T11:11:24;10.13;;;2.67;;
14876;SDS011;22152;48.158;17.118;2023-01-31T11:14:09;6.85;;;1.70;;
14876;SDS011;22152;48.158;17.118;2023-01-31T11:20:00;6.70;;;1.55;;
14876;SDS011;22152;48.158;17.118;2023-01-31T11:22:56;12.95;;;1.90;;
14876;SDS011;22152;48.158;17.118;2023-01-31T11:25:31;12.93;;;2.30;;
14876;SDS011;22152;48.158;17.118;2023-01-31T11:28:33;10.32;;;1.98;;
14876;SDS011;22152;48.158;17.118;2023-01-31T11:31:17;8.70;;;2.00;;
14876;SDS011;22152;48.158;17.118;2023-01-31T11:34:22;9.20;;;2.15;;
14876;SDS011;22152;48.158;17.118;2023-01-31T11:37:12;7.82;;;1.60;;
14876;SDS011;22152;48.158;17.118;2023-01-31T11:42:53;13.95;;;2.40;;
14876;SDS011;22152;48.158;17.118;2023-01-31T11:45:58;9.13;;;2.22;;
14876;SDS011;22152;48.158;17.118;2023-01-31T11:48:39;8.95;;;2.67;;
14876;SDS011;22152;48.158;17.118;2023-01-31T11:51:35;6.40;;;1.58;;
14876;SDS011;22152;48.158;17.118;2023-01-31T11:54:09;9.15;;;2.22;;
14876;SDS011;22152;48.158;17.118;2023-01-31T11:57:15;9.85;;;2.58;;
14876;SDS011;22152;48.158;17.118;2023-01-31T11:59:54;11.32;;;2.38;;
14876;SDS011;22152;48.158;17.118;2023-01-31T12:02:52;4.82;;;2.05;;
14876;SDS011;22152;48.158;17.118;2023-01-31T12:05:35;7.30;;;1.30;;
14876;SDS011;22152;48.158;17.118;2023-01-31T12:08:32;10.77;;;2.10;;
14876;SDS011;22152;48.158;17.118;2023-01-31T12:14:14;6.00;;;1.75;;
14876;SDS011;22152;48.158;17.118;2023-01-31T12:16:54;8.85;;;1.85;;
14876;SDS011;22152;48.158;17.118;2023-01-31T12:23:29;9.18;;;1.42;;
14876;SDS011;22152;48.158;17.118;2023-01-31T12:26:42;5.80;;;1.48;;
14876;SDS011;22152;48.158;17.118;2023-01-31T12:39:44;10.55;;;1.77;;
14876;SDS011;22152;48.158;17.118;2023-01-31T12:51:45;5.97;;;1.48;;
14876;SDS011;22152;48.158;17.118;2023-01-31T12:55:19;5.53;;;1.50;;
14876;SDS011;22152;48.158;17.118;2023-01-31T12:58:55;7.15;;;1.58;;
14876;SDS011;22152;48.158;17.118;2023-01-31T13:01:38;5.22;;;1.58;;
14876;SDS011;22152;48.158;17.118;2023-01-31T13:04:47;7.35;;;1.75;;
14876;SDS011;22152;48.158;17.118;2023-01-31T13:10:31;7.38;;;1.73;;
14876;SDS011;22152;48.158;17.118;2023-01-31T13:13:15;6.15;;;1.55;;
14876;SDS011;22152;48.158;17.118;2023-01-31T13:16:35;7.38;;;1.63;;
14876;SDS011;22152;48.158;17.118;2023-01-31T13:19:32;7.80;;;1.80;;
14876;SDS011;22152;48.158;17.118;2023-01-31T13:22:46;8.18;;;1.92;;
14876;SDS011;22152;48.158;17.118;2023-01-31T13:25:48;5.82;;;1.20;;
14876;SDS011;22152;48.158;17.118;2023-01-31T13:28:29;8.40;;;1.90;;
14876;SDS011;22152;48.158;17.118;2023-01-31T13:31:30;7.18;;;1.83;;
14876;SDS011;22152;48.158;17.118;2023-01-31T13:34:12;7.60;;;1.50;;
14876;SDS011;22152;48.158;17.118;2023-01-31T13:37:12;8.68;;;1.95;;
14876;SDS011;22152;48.158;17.118;2023-01-31T13:40:03;7.90;;;1.70;;
14876;SDS011;22152;48.158;17.118;2023-01-31T13:43:12;5.57;;;1.60;;
14876;SDS011;22152;48.158;17.118;2023-01-31T13:45:55;7.20;;;1.60;;
14876;SDS011;22152;48.158;17.118;2023-01-31T13:49:00;7.00;;;1.75;;
14876;SDS011;22152;48.158;17.118;2023-01-31T13:51:43;9.83;;;2.03;;
14876;SDS011;22152;48.158;17.118;2023-01-31T13:54:47;8.63;;;1.40;;
14876;SDS011;22152;48.158;17.118;2023-01-31T13:57:56;5.32;;;1.50;;
14876;SDS011;22152;48.158;17.118;2023-01-31T14:01:01;8.85;;;1.60;;
14876;SDS011;22152;48.158;17.118;2023-01-31T14:10:27;10.60;;;2.80;;
14876;SDS011;22152;48.158;17.118;2023-01-31T14:13:18;5.70;;;1.65;;
14876;SDS011;22152;48.158;17.118;2023-01-31T14:16:01;10.40;;;1.88;;
14876;SDS011;22152;48.158;17.118;2023-01-31T14:18:55;7.30;;;2.17;;
14876;SDS011;22152;48.158;17.118;2023-01-31T14:27:27;10.73;;;2.60;;
14876;SDS011;22152;48.158;17.118;2023-01-31T14:33:19;8.68;;;2.60;;
14876;SDS011;22152;48.158;17.118;2023-01-31T14:37:17;8.70;;;2.60;;
14876;SDS011;22152;48.158;17.118;2023-01-31T14:39:45;8.95;;;2.63;;
14876;SDS011;22152;48.158;17.118;2023-01-31T14:49:21;8.60;;;3.45;;
14876;SDS011;22152;48.158;17.118;2023-01-31T14:59:28;12.10;;;3.40;;
14876;SDS011;22152;48.158;17.118;2023-01-31T15:10:54;14.38;;;3.15;;
14876;SDS011;22152;48.158;17.118;2023-01-31T15:13:57;10.50;;;2.70;;
14876;SDS011;22152;48.158;17.118;2023-01-31T15:16:31;11.85;;;2.63;;
14876;SDS011;22152;48.158;17.118;2023-01-31T15:19:27;7.82;;;2.50;;
14876;SDS011;22152;48.158;17.118;2023-01-31T15:22:07;12.15;;;3.30;;
14876;SDS011;22152;48.158;17.118;2023-01-31T15:25:06;16.35;;;3.70;;
14876;SDS011;22152;48.158;17.118;2023-01-31T15:27:52;8.13;;;2.80;;
14876;SDS011;22152;48.158;17.118;2023-01-31T15:30:47;15.07;;;3.67;;
14876;SDS011;22152;48.158;17.118;2023-01-31T15:33:28;8.75;;;2.75;;
14876;SDS011;22152;48.158;17.118;2023-01-31T15:36:43;12.82;;;2.85;;
14876;SDS011;22152;48.158;17.118;2023-01-31T15:39:33;12.23;;;3.17;;
14876;SDS011;22152;48.158;17.118;2023-01-31T15:42:32;12.75;;;2.90;;
14876;SDS011;22152;48.158;17.118;2023-01-31T15:45:12;11.82;;;3.10;;
14876;SDS011;22152;48.158;17.118;2023-01-31T15:48:20;11.05;;;3.70;;
14876;SDS011;22152;48.158;17.118;2023-01-31T15:50:56;15.30;;;3.97;;
14876;SDS011;22152;48.158;17.118;2023-01-31T15:53:59;17.20;;;4.22;;
14876;SDS011;22152;48.158;17.118;2023-01-31T15:56:35;8.63;;;3.22;;
14876;SDS011;22152;48.158;17.118;2023-01-31T15:59:31;13.70;;;3.28;;
14876;SDS011;22152;48.158;17.118;2023-01-31T16:02:04;17.05;;;3.13;;
14876;SDS011;22152;48.158;17.118;2023-01-31T16:05:19;18.65;;;3.08;;
14876;SDS011;22152;48.158;17.118;2023-01-31T16:07:52;15.25;;;3.28;;
14876;SDS011;22152;48.158;17.118;2023-01-31T16:10:46;18.33;;;3.03;;
14876;SDS011;22152;48.158;17.118;2023-01-31T16:13:19;10.23;;;2.97;;
14876;SDS011;22152;48.158;17.118;2023-01-31T16:16:14;6.38;;;2.65;;
14876;SDS011;22152;48.158;17.118;2023-01-31T16:18:48;12.82;;;2.70;;
14876;SDS011;22152;48.158;17.118;2023-01-31T16:21:44;8.18;;;2.67;;
14876;SDS011;22152;48.158;17.118;2023-01-31T16:27:23;8.25;;;3.30;;
14876;SDS011;22152;48.158;17.118;2023-01-31T16:30:19;13.95;;;3.53;;
14876;SDS011;22152;48.158;17.118;2023-01-31T16:32:51;13.15;;;2.58;;
14876;SDS011;22152;48.158;17.118;2023-01-31T16:35:45;10.50;;;2.63;;
14876;SDS011;22152;48.158;17.118;2023-01-31T16:38:18;18.80;;;2.75;;
14876;SDS011;22152;48.158;17.118;2023-01-31T16:41:16;13.60;;;2.20;;
14876;SDS011;22152;48.158;17.118;2023-01-31T16:44:11;5.38;;;2.25;;
14876;SDS011;22152;48.158;17.118;2023-01-31T16:47:13;10.10;;;2.17;;
14876;SDS011;22152;48.158;17.118;2023-01-31T16:53:45;6.45;;;1.83;;
14876;SDS011;22152;48.158;17.118;2023-01-31T16:59:10;10.52;;;2.38;;
14876;SDS011;22152;48.158;17.118;2023-01-31T17:02:19;12.95;;;1.83;;
14876;SDS011;22152;48.158;17.118;2023-01-31T17:05:21;8.20;;;2.08;;
14876;SDS011;22152;48.158;17.118;2023-01-31T17:07:59;8.15;;;1.63;;
14876;SDS011;22152;48.158;17.118;2023-01-31T17:10:52;7.78;;;2.28;;
14876;SDS011;22152;48.158;17.118;2023-01-31T17:13:24;9.27;;;2.08;;
14876;SDS011;22152;48.158;17.118;2023-01-31T17:16:20;13.00;;;2.90;;
14876;SDS011;22152;48.158;17.118;2023-01-31T17:18:59;12.95;;;2.65;;
14876;SDS011;22152;48.158;17.118;2023-01-31T17:21:52;23.60;;;3.22;;
14876;SDS011;22152;48.158;17.118;2023-01-31T17:24:45;13.88;;;2.40;;
14876;SDS011;22152;48.158;17.118;2023-01-31T17:27:17;14.52;;;3.15;;
14876;SDS011;22152;48.158;17.118;2023-01-31T17:30:13;18.15;;;2.53;;
14876;SDS011;22152;48.158;17.118;2023-01-31T17:32:48;4.63;;;1.90;;
14876;SDS011;22152;48.158;17.118;2023-01-31T17:35:42;14.60;;;2.80;;
14876;SDS011;22152;48.158;17.118;2023-01-31T17:38:17;21.77;;;3.95;;
14876;SDS011;22152;48.158;17.118;2023-01-31T17:41:12;11.18;;;3.00;;
14876;SDS011;22152;48.158;17.118;2023-01-31T17:43:47;14.40;;;2.88;;
14876;SDS011;22152;48.158;17.118;2023-01-31T17:46:40;7.75;;;1.75;;
14876;SDS011;22152;48.158;17.118;2023-01-31T17:49:13;16.70;;;2.85;;
14876;SDS011;22152;48.158;17.118;2023-01-31T17:52:06;10.40;;;2.72;;
14876;SDS011;22152;48.158;17.118;2023-01-31T17:54:38;11.18;;;3.03;;
14876;SDS011;22152;48.158;17.118;2023-01-31T17:57:31;15.88;;;3.38;;
14876;SDS011;22152;48.158;17.118;2023-01-31T18:00:04;12.55;;;2.80;;
14876;SDS011;22152;48.158;17.118;2023-01-31T18:03:02;11.57;;;3.08;;
14876;SDS011;22152;48.158;17.118;2023-01-31T18:05:34;13.10;;;2.58;;
14876;SDS011;22152;48.158;17.118;2023-01-31T18:08:27;13.00;;;3.00;;
14876;SDS011;22152;48.158;17.118;2023-01-31T18:11:05;10.07;;;2.65;;
14876;SDS011;22152;48.158;17.118;2023-01-31T18:14:02;15.38;;;2.95;;
14876;SDS011;22152;48.158;17.118;2023-01-31T18:16:34;10.55;;;3.08;;
14876;SDS011;22152;48.158;17.118;2023-01-31T18:19:27;14.20;;;3.28;;
14876;SDS011;22152;48.158;17.118;2023-01-31T18:22:13;11.75;;;3.47;;
14876;SDS011;22152;48.158;17.118;2023-01-31T18:25:06;22.40;;;4.60;;
14876;SDS011;22152;48.158;17.118;2023-01-31T18:27:39;13.80;;;2.97;;
14876;SDS011;22152;48.158;17.118;2023-01-31T18:30:32;11.90;;;2.70;;
14876;SDS011;22152;48.158;17.118;2023-01-31T18:33:04;12.18;;;3.35;;
14876;SDS011;22152;48.158;17.118;2023-01-31T18:35:58;9.02;;;2.60;;
14876;SDS011;22152;48.158;17.118;2023-01-31T18:38:31;13.50;;;3.22;;
14876;SDS011;22152;48.158;17.118;2023-01-31T18:41:24;10.20;;;3.67;;
14876;SDS011;22152;48.158;17.118;2023-01-31T18:43:56;14.30;;;3.08;;
14876;SDS011;22152;48.158;17.118;2023-01-31T18:46:49;6.75;;;2.30;;
14876;SDS011;22152;48.158;17.118;2023-01-31T18:49:21;8.93;;;2.47;;
14876;SDS011;22152;48.158;17.118;2023-01-31T18:52:14;12.00;;;2.85;;